createdAt,value
2023-02-03T00:00:54.941Z,8.82
2023-02-03T00:01:55.182Z,8.84
2023-02-03T00:02:54.736Z,8.85
2023-02-03T00:03:54.861Z,8.82
2023-02-03T00:04:54.826Z,8.82
2023-02-03T00:05:54.822Z,8.95
2023-02-03T00:06:54.809Z,8.82
2023-02-03T00:07:54.735Z,8.91
2023-02-03T00:08:54.756Z,8.88
2023-02-03T00:09:54.711Z,8.84
2023-02-03T00:10:54.822Z,8.89
2023-02-03T00:11:54.623Z,8.85
2023-02-03T00:12:54.699Z,8.92
2023-02-03T00:13:54.615Z,8.87
2023-02-03T00:14:54.567Z,8.87
2023-02-03T00:15:54.505Z,8.89
2023-02-03T00:16:54.481Z,8.88
2023-02-03T00:17:54.207Z,8.92
2023-02-03T00:18:54.415Z,8.87
2023-02-03T00:19:54.381Z,8.89
2023-02-03T00:20:54.369Z,8.85
2023-02-03T00:21:54.332Z,8.85
2023-02-03T00:22:54.057Z,8.87
2023-02-03T00:23:54.289Z,8.92
2023-02-03T00:24:54.237Z,8.87
2023-02-03T00:25:54.206Z,8.87
2023-02-03T00:26:54.179Z,8.87
2023-02-03T00:27:54.411Z,8.85
2023-02-03T00:28:54.173Z,8.92
2023-02-03T00:29:54.083Z,8.85
2023-02-03T00:30:54.165Z,8.92
2023-02-03T00:31:54.603Z,8.88
2023-02-03T00:32:53.763Z,8.95
2023-02-03T00:33:53.980Z,8.82
2023-02-03T00:34:53.942Z,8.89
2023-02-03T00:35:53.924Z,8.87
2023-02-03T00:36:53.903Z,8.95
2023-02-03T00:37:53.859Z,8.88
2023-02-03T00:38:53.872Z,8.85
2023-02-03T00:39:53.795Z,8.87
2023-02-03T00:40:53.791Z,8.91
2023-02-03T00:41:53.737Z,8.87
2023-02-03T00:42:53.711Z,8.91
2023-02-03T00:43:53.689Z,8.92
2023-02-03T00:44:53.701Z,8.89
2023-02-03T00:45:53.845Z,8.91
2023-02-03T00:46:53.607Z,8.91
2023-02-03T00:47:53.565Z,8.89
2023-02-03T00:48:53.531Z,8.91
2023-02-03T00:49:53.507Z,8.87
2023-02-03T00:50:53.465Z,8.91
2023-02-03T00:51:53.439Z,8.95
2023-02-03T00:52:53.416Z,8.87
2023-02-03T00:53:53.393Z,9
2023-02-03T00:54:53.366Z,9
2023-02-03T00:55:53.317Z,8.97
2023-02-03T00:56:53.297Z,9.02
2023-02-03T00:57:53.259Z,8.92
2023-02-03T00:58:53.275Z,8.91
2023-02-03T00:59:53.215Z,8.95
2023-02-03T01:00:53.415Z,9.08
2023-02-03T01:01:53.221Z,9.02
2023-02-03T01:02:53.203Z,8.92
2023-02-03T01:03:53.098Z,8.89
2023-02-03T01:04:53.095Z,8.94
2023-02-03T01:05:53.042Z,8.92
2023-02-03T01:06:53.008Z,9.06
2023-02-03T01:07:52.977Z,8.97
2023-02-03T01:08:52.962Z,8.92
2023-02-03T01:09:52.929Z,8.88
2023-02-03T01:10:52.660Z,8.97
2023-02-03T01:11:52.867Z,8.97
2023-02-03T01:12:52.823Z,8.94
2023-02-03T01:13:52.603Z,8.95
2023-02-03T01:14:52.761Z,8.95
2023-02-03T01:15:52.741Z,8.94
2023-02-03T01:16:52.972Z,8.95
2023-02-03T01:17:52.680Z,8.95
2023-02-03T01:18:52.703Z,8.97
2023-02-03T01:19:52.623Z,8.94
2023-02-03T01:20:52.591Z,8.97
2023-02-03T01:21:52.609Z,8.92
2023-02-03T01:22:52.545Z,9
2023-02-03T01:23:52.531Z,8.88
2023-02-03T01:24:52.511Z,8.92
2023-02-03T01:25:52.198Z,8.97
2023-02-03T01:26:52.420Z,8.95
2023-02-03T01:27:52.549Z,8.88
2023-02-03T01:28:52.373Z,9
2023-02-03T01:29:52.332Z,8.95
2023-02-03T01:30:52.706Z,8.97
2023-02-03T01:31:52.779Z,8.97
2023-02-03T01:32:52.323Z,9.03
2023-02-03T01:33:52.214Z,9.02
2023-02-03T01:34:52.208Z,8.99
2023-02-03T01:35:52.149Z,8.99
2023-02-03T01:36:52.123Z,8.99
2023-02-03T01:37:52.084Z,8.97
2023-02-03T01:38:52.074Z,8.95
2023-02-03T01:39:52.144Z,8.91
2023-02-03T01:40:52.004Z,8.92
2023-02-03T01:41:51.979Z,8.88
2023-02-03T01:42:51.959Z,8.97
2023-02-03T01:43:51.924Z,8.94
2023-02-03T01:44:51.919Z,8.97
2023-02-03T01:45:51.959Z,9.02
2023-02-03T01:46:51.831Z,9.04
2023-02-03T01:47:51.805Z,9.04
2023-02-03T01:48:51.814Z,8.99
2023-02-03T01:49:51.752Z,9.04
2023-02-03T01:50:51.747Z,9.04
2023-02-03T01:51:51.696Z,9.1
2023-02-03T01:52:51.666Z,9.04
2023-02-03T01:53:51.621Z,9.04
2023-02-03T01:54:51.596Z,9.02
2023-02-03T01:55:51.567Z,9.02
2023-02-03T01:56:51.534Z,9.04
2023-02-03T01:57:51.505Z,9.04
2023-02-03T01:58:51.474Z,9.06
2023-02-03T01:59:51.453Z,9.13
2023-02-03T02:00:51.423Z,9.08
2023-02-03T02:01:51.506Z,9.06
2023-02-03T02:02:51.622Z,9.06
2023-02-03T02:03:51.329Z,9.08
2023-02-03T02:04:51.351Z,9.14
2023-02-03T02:05:51.263Z,9.06
2023-02-03T02:06:51.319Z,9.1
2023-02-03T02:07:51.205Z,9.13
2023-02-03T02:08:51.182Z,9.06
2023-02-03T02:09:51.172Z,9.08
2023-02-03T02:10:51.137Z,9.08
2023-02-03T02:11:51.086Z,9.16
2023-02-03T02:12:51.069Z,9.11
2023-02-03T02:13:51.119Z,9.11
2023-02-03T02:14:51.000Z,9.1
2023-02-03T02:15:51.119Z,9.1
2023-02-03T02:16:50.935Z,9.18
2023-02-03T02:17:50.917Z,9.13
2023-02-03T02:18:50.884Z,9.19
2023-02-03T02:19:50.854Z,9.16
2023-02-03T02:20:50.888Z,9.1
2023-02-03T02:21:50.839Z,9.16
2023-02-03T02:22:50.798Z,9.18
2023-02-03T02:23:50.757Z,9.14
2023-02-03T02:24:50.705Z,9.22
2023-02-03T02:25:50.670Z,9.21
2023-02-03T02:26:50.667Z,9.18
2023-02-03T02:27:50.866Z,9.13
2023-02-03T02:28:50.589Z,9.18
2023-02-03T02:29:50.561Z,9.21
2023-02-03T02:30:50.958Z,9.14
2023-02-03T02:31:51.091Z,9.11
2023-02-03T02:32:50.516Z,9.08
2023-02-03T02:33:50.451Z,9.13
2023-02-03T02:34:50.424Z,9.16
2023-02-03T02:35:50.137Z,9.22
2023-02-03T02:36:50.395Z,9.19
2023-02-03T02:37:50.355Z,9.1
2023-02-03T02:38:50.313Z,9.16
2023-02-03T02:39:50.275Z,9.06
2023-02-03T02:40:50.232Z,9.19
2023-02-03T02:41:50.212Z,9.18
2023-02-03T02:42:50.214Z,9.08
2023-02-03T02:43:50.164Z,9.16
2023-02-03T02:44:50.130Z,9.18
2023-02-03T02:45:50.089Z,9.13
2023-02-03T02:46:50.070Z,9.14
2023-02-03T02:47:50.026Z,9.21
2023-02-03T02:48:50.011Z,9.19
2023-02-03T02:49:49.993Z,9.21
2023-02-03T02:50:49.936Z,9.1
2023-02-03T02:51:49.933Z,9.18
2023-02-03T02:52:49.938Z,9.11
2023-02-03T02:53:49.849Z,9.14
2023-02-03T02:54:49.839Z,9.18
2023-02-03T02:55:49.816Z,9.11
2023-02-03T02:56:49.761Z,9.21
2023-02-03T02:57:49.751Z,9.16
2023-02-03T02:58:49.721Z,9.23
2023-02-03T02:59:49.691Z,9.14
2023-02-03T03:00:49.641Z,9.18
2023-02-03T03:01:49.881Z,9.19
2023-02-03T03:02:49.571Z,9.19
2023-02-03T03:03:49.562Z,9.19
2023-02-03T03:04:49.771Z,9.21
2023-02-03T03:05:49.498Z,9.21
2023-02-03T03:06:49.460Z,9.22
2023-02-03T03:07:49.429Z,9.23
2023-02-03T03:08:49.440Z,9.32
2023-02-03T03:09:49.355Z,9.18
2023-02-03T03:10:49.433Z,9.23
2023-02-03T03:11:49.301Z,9.23
2023-02-03T03:12:49.273Z,9.25
2023-02-03T03:13:49.245Z,9.26
2023-02-03T03:14:49.219Z,9.21
2023-02-03T03:15:49.385Z,9.25
2023-02-03T03:16:49.142Z,9.23
2023-02-03T03:17:49.115Z,9.22
2023-02-03T03:18:49.123Z,9.18
2023-02-03T03:19:49.071Z,9.21
2023-02-03T03:20:49.032Z,9.21
2023-02-03T03:21:48.998Z,9.23
2023-02-03T03:22:48.963Z,9.21
2023-02-03T03:23:48.926Z,9.21
2023-02-03T03:24:48.949Z,9.23
2023-02-03T03:25:48.894Z,9.22
2023-02-03T03:26:48.863Z,9.22
2023-02-03T03:27:48.945Z,9.14
2023-02-03T03:28:48.787Z,9.21
2023-02-03T03:29:48.747Z,9.19
2023-02-03T03:30:48.919Z,9.19
2023-02-03T03:31:49.093Z,9.23
2023-02-03T03:32:48.654Z,9.21
2023-02-03T03:33:48.633Z,9.19
2023-02-03T03:34:48.592Z,9.18
2023-02-03T03:35:48.565Z,9.21
2023-02-03T03:36:48.534Z,9.16
2023-02-03T03:37:48.575Z,9.21
2023-02-03T03:38:48.468Z,9.25
2023-02-03T03:39:48.450Z,9.16
2023-02-03T03:40:48.456Z,9.19
2023-02-03T03:41:48.377Z,9.19
2023-02-03T03:42:48.380Z,9.19
2023-02-03T03:43:48.324Z,9.21
2023-02-03T03:44:48.380Z,9.26
2023-02-03T03:45:48.276Z,9.22
2023-02-03T03:46:48.341Z,9.19
2023-02-03T03:47:48.185Z,9.19
2023-02-03T03:48:48.161Z,9.26
2023-02-03T03:49:48.143Z,9.18
2023-02-03T03:50:48.096Z,9.21
2023-02-03T03:51:48.087Z,9.19
2023-02-03T03:52:48.036Z,9.19
2023-02-03T03:53:48.002Z,9.19
2023-02-03T03:54:47.981Z,9.21
2023-02-03T03:55:47.975Z,9.23
2023-02-03T03:56:47.963Z,9.21
2023-02-03T03:57:47.662Z,9.18
2023-02-03T03:58:47.882Z,9.23
2023-02-03T03:59:47.821Z,9.22
2023-02-03T04:00:47.790Z,9.16
2023-02-03T04:01:48.094Z,9.19
2023-02-03T04:02:48.279Z,9.22
2023-02-03T04:03:47.694Z,9.19
2023-02-03T04:04:47.666Z,9.25
2023-02-03T04:05:47.763Z,9.23
2023-02-03T04:06:47.369Z,9.25
2023-02-03T04:07:47.585Z,9.18
2023-02-03T04:08:47.557Z,9.16
2023-02-03T04:09:47.518Z,9.23
2023-02-03T04:10:47.478Z,9.23
2023-02-03T04:11:47.450Z,9.23
2023-02-03T04:12:47.462Z,9.21
2023-02-03T04:13:47.391Z,9.21
2023-02-03T04:14:47.380Z,9.22
2023-02-03T04:15:47.529Z,9.18
2023-02-03T04:16:47.299Z,9.21
2023-02-03T04:17:47.274Z,9.19
2023-02-03T04:18:47.248Z,9.25
2023-02-03T04:19:47.209Z,9.22
2023-02-03T04:20:47.187Z,9.25
2023-02-03T04:21:47.158Z,9.29
2023-02-03T04:22:47.126Z,9.29
2023-02-03T04:23:47.128Z,9.23
2023-02-03T04:24:47.041Z,9.31
2023-02-03T04:25:47.053Z,9.22
2023-02-03T04:26:46.986Z,9.29
2023-02-03T04:27:47.222Z,9.23
2023-02-03T04:28:46.980Z,9.25
2023-02-03T04:29:46.919Z,9.29
2023-02-03T04:30:47.033Z,9.26
2023-02-03T04:31:47.105Z,9.31
2023-02-03T04:32:46.821Z,9.28
2023-02-03T04:33:46.773Z,9.19
2023-02-03T04:34:46.754Z,9.22
2023-02-03T04:35:46.711Z,9.23
2023-02-03T04:36:46.707Z,9.25
2023-02-03T04:37:46.671Z,9.19
2023-02-03T04:38:46.769Z,9.21
2023-02-03T04:39:46.585Z,9.34
2023-02-03T04:40:46.555Z,9.21
2023-02-03T04:41:46.523Z,9.28
2023-02-03T04:42:46.488Z,9.29
2023-02-03T04:43:46.463Z,9.32
2023-02-03T04:44:46.476Z,9.22
2023-02-03T04:45:46.528Z,9.19
2023-02-03T04:46:46.385Z,9.23
2023-02-03T04:47:46.373Z,9.22
2023-02-03T04:48:46.301Z,9.19
2023-02-03T04:49:46.280Z,9.32
2023-02-03T04:50:46.261Z,9.28
2023-02-03T04:51:46.219Z,9.28
2023-02-03T04:52:46.183Z,9.28
2023-02-03T04:53:46.164Z,9.28
2023-02-03T04:54:46.159Z,9.19
2023-02-03T04:55:46.093Z,9.23
2023-02-03T04:56:46.062Z,9.22
2023-02-03T04:57:46.040Z,9.29
2023-02-03T04:58:46.033Z,9.26
2023-02-03T04:59:45.970Z,9.28
2023-02-03T05:00:46.114Z,9.18
2023-02-03T05:01:45.911Z,9.22
2023-02-03T05:02:45.910Z,9.34
2023-02-03T05:03:46.047Z,9.26
2023-02-03T05:04:45.823Z,9.22
2023-02-03T05:05:45.547Z,9.26
2023-02-03T05:06:45.754Z,9.28
2023-02-03T05:07:45.768Z,9.34
2023-02-03T05:08:45.728Z,9.25
2023-02-03T05:09:45.662Z,9.32
2023-02-03T05:10:45.628Z,9.25
2023-02-03T05:11:45.598Z,9.36
2023-02-03T05:12:45.586Z,9.36
2023-02-03T05:13:45.534Z,9.29
2023-02-03T05:14:45.508Z,9.25
2023-02-03T05:15:45.483Z,9.25
2023-02-03T05:16:46.426Z,9.31
2023-02-03T05:17:45.418Z,9.37
2023-02-03T05:18:45.447Z,9.34
2023-02-03T05:19:45.355Z,9.28
2023-02-03T05:20:45.351Z,9.32
2023-02-03T05:21:45.281Z,9.21
2023-02-03T05:22:45.277Z,9.26
2023-02-03T05:23:45.217Z,9.26
2023-02-03T05:24:45.191Z,9.37
2023-02-03T05:25:45.161Z,9.32
2023-02-03T05:26:45.163Z,9.31
2023-02-03T05:27:45.221Z,9.29
2023-02-03T05:28:45.080Z,9.29
2023-02-03T05:29:45.033Z,9.37
2023-02-03T05:30:45.156Z,9.32
2023-02-03T05:31:45.230Z,9.34
2023-02-03T05:32:45.012Z,9.32
2023-02-03T05:33:44.678Z,9.37
2023-02-03T05:34:47.133Z,9.28
2023-02-03T05:35:44.860Z,9.4
2023-02-03T05:36:44.826Z,9.43
2023-02-03T05:37:44.796Z,9.29
2023-02-03T05:38:44.842Z,9.29
2023-02-03T05:39:44.724Z,9.31
2023-02-03T05:40:44.708Z,9.32
2023-02-03T05:41:44.692Z,9.41
2023-02-03T05:42:44.647Z,9.31
2023-02-03T05:43:44.626Z,9.31
2023-02-03T05:44:44.584Z,9.36
2023-02-03T05:45:44.785Z,9.37
2023-02-03T05:46:44.524Z,9.36
2023-02-03T05:47:44.492Z,9.37
2023-02-03T05:48:44.500Z,9.36
2023-02-03T05:49:44.422Z,9.26
2023-02-03T05:50:44.414Z,9.37
2023-02-03T05:51:44.356Z,9.43
2023-02-03T05:52:44.331Z,9.39
2023-02-03T05:53:44.302Z,9.39
2023-02-03T05:54:44.297Z,9.37
2023-02-03T05:55:44.381Z,9.37
2023-02-03T05:56:44.209Z,9.39
2023-02-03T05:57:44.170Z,9.31
2023-02-03T05:58:44.154Z,9.37
2023-02-03T05:59:44.121Z,9.4
2023-02-03T06:00:44.079Z,9.29
2023-02-03T06:01:44.074Z,9.36
2023-02-03T06:02:44.052Z,9.4
2023-02-03T06:03:46.892Z,9.39
2023-02-03T06:04:44.144Z,9.36
2023-02-03T06:05:43.809Z,9.41
2023-02-03T06:06:43.975Z,9.43
2023-02-03T06:07:43.898Z,9.4
2023-02-03T06:08:43.843Z,9.34
2023-02-03T06:09:43.809Z,9.39
2023-02-03T06:10:43.770Z,9.36
2023-02-03T06:11:43.754Z,9.4
2023-02-03T06:12:43.709Z,9.4
2023-02-03T06:13:43.780Z,9.39
2023-02-03T06:14:43.679Z,9.4
2023-02-03T06:15:43.624Z,9.37
2023-02-03T06:16:43.767Z,9.37
2023-02-03T06:17:43.581Z,9.36
2023-02-03T06:18:43.531Z,9.29
2023-02-03T06:19:43.491Z,9.37
2023-02-03T06:20:43.561Z,9.37
2023-02-03T06:21:43.193Z,9.36
2023-02-03T06:22:43.426Z,9.41
2023-02-03T06:23:43.380Z,9.29
2023-02-03T06:24:43.340Z,9.34
2023-02-03T06:25:43.355Z,9.43
2023-02-03T06:26:43.279Z,9.31
2023-02-03T06:27:43.397Z,9.39
2023-02-03T06:28:43.235Z,9.29
2023-02-03T06:29:43.208Z,9.32
2023-02-03T06:30:43.840Z,9.28
2023-02-03T06:31:43.547Z,9.28
2023-02-03T06:32:43.125Z,9.34
2023-02-03T06:33:43.075Z,9.31
2023-02-03T06:34:43.049Z,9.36
2023-02-03T06:35:43.005Z,9.36
2023-02-03T06:36:43.019Z,9.34
2023-02-03T06:37:42.947Z,9.43
2023-02-03T06:38:42.948Z,9.41
2023-02-03T06:39:43.025Z,9.43
2023-02-03T06:40:42.845Z,9.41
2023-02-03T06:41:42.853Z,9.34
2023-02-03T06:42:42.786Z,9.41
2023-02-03T06:43:42.752Z,9.37
2023-02-03T06:44:42.725Z,9.39
2023-02-03T06:45:42.834Z,9.39
2023-02-03T06:46:42.730Z,9.43
2023-02-03T06:47:42.629Z,9.25
2023-02-03T06:48:42.608Z,9.29
2023-02-03T06:49:42.612Z,9.34
2023-02-03T06:50:42.564Z,9.4
2023-02-03T06:51:42.515Z,9.26
2023-02-03T06:52:42.535Z,9.32
2023-02-03T06:53:42.460Z,9.43
2023-02-03T06:54:42.456Z,9.31
2023-02-03T06:55:42.291Z,9.26
2023-02-03T06:56:42.351Z,9.21
2023-02-03T06:57:42.324Z,9.26
2023-02-03T06:58:42.301Z,9.28
2023-02-03T06:59:42.271Z,9.28
2023-02-03T07:00:42.271Z,9.18
2023-02-03T07:01:42.419Z,9.25
2023-02-03T07:02:42.350Z,9.23
2023-02-03T07:03:42.166Z,9.21
2023-02-03T07:04:42.144Z,9.26
2023-02-03T07:05:42.112Z,9.18
2023-02-03T07:06:42.050Z,9.18
2023-02-03T07:07:42.062Z,9.11
2023-02-03T07:08:42.035Z,9.11
2023-02-03T07:09:41.962Z,9.08
2023-02-03T07:10:41.970Z,9.02
2023-02-03T07:11:41.900Z,8.95
2023-02-03T07:12:41.861Z,8.92
2023-02-03T07:13:41.838Z,8.85
2023-02-03T07:14:41.952Z,8.81
2023-02-03T07:15:42.131Z,8.81
2023-02-03T07:16:41.747Z,8.71
2023-02-03T07:17:41.740Z,8.73
2023-02-03T07:18:52.691Z,8.66
2023-02-03T07:19:41.641Z,8.69
2023-02-03T07:20:41.652Z,8.7
2023-02-03T07:21:41.608Z,8.64
2023-02-03T07:22:41.544Z,8.67
2023-02-03T07:23:41.512Z,8.64
2023-02-03T07:24:41.543Z,8.61
2023-02-03T07:25:41.461Z,8.67
2023-02-03T07:26:41.474Z,8.66
2023-02-03T07:27:41.357Z,8.66
2023-02-03T07:28:41.123Z,8.69
2023-02-03T07:29:41.353Z,8.64
2023-02-03T07:30:41.373Z,8.69
2023-02-03T07:31:41.549Z,8.64
2023-02-03T07:32:41.229Z,8.73
2023-02-03T07:33:41.208Z,8.81
2023-02-03T07:34:41.171Z,8.7
2023-02-03T07:35:41.138Z,8.78
2023-02-03T07:36:41.110Z,8.71
2023-02-03T07:37:41.085Z,8.74
2023-02-03T07:38:41.089Z,8.79
2023-02-03T07:39:41.017Z,8.79
2023-02-03T07:40:41.032Z,8.91
2023-02-03T07:41:41.012Z,8.84
2023-02-03T07:42:40.948Z,8.81
2023-02-03T07:43:40.926Z,8.82
2023-02-03T07:44:40.863Z,8.85
2023-02-03T07:45:40.836Z,8.91
2023-02-03T07:46:41.027Z,9.03
2023-02-03T07:47:40.767Z,8.91
2023-02-03T07:48:40.759Z,8.92
2023-02-03T07:49:40.707Z,8.91
2023-02-03T07:50:40.675Z,8.97
2023-02-03T07:51:40.446Z,9.02
2023-02-03T07:52:40.640Z,9.06
2023-02-03T07:53:40.648Z,9.13
2023-02-03T07:54:40.548Z,9.08
2023-02-03T07:55:40.552Z,9.13
2023-02-03T07:56:40.592Z,9.14
2023-02-03T07:57:40.476Z,9.21
2023-02-03T07:58:40.483Z,9.26
2023-02-03T07:59:40.421Z,9.28
2023-02-03T08:00:40.395Z,9.23
2023-02-03T08:01:40.537Z,9.23
2023-02-03T08:02:40.301Z,9.23
2023-02-03T08:03:40.275Z,9.32
2023-02-03T08:04:40.498Z,9.37
2023-02-03T08:05:40.221Z,9.32
2023-02-03T08:06:40.183Z,9.39
2023-02-03T08:07:40.164Z,9.4
2023-02-03T08:08:39.895Z,9.37
2023-02-03T08:09:40.081Z,9.36
2023-02-03T08:10:40.090Z,9.36
2023-02-03T08:11:40.028Z,9.44
2023-02-03T08:12:40.121Z,9.39
2023-02-03T08:13:39.964Z,9.32
2023-02-03T08:14:39.960Z,9.4
2023-02-03T08:15:39.895Z,9.4
2023-02-03T08:16:40.045Z,9.46
2023-02-03T08:17:39.835Z,9.43
2023-02-03T08:18:39.805Z,9.47
2023-02-03T08:19:39.783Z,9.55
2023-02-03T08:20:39.797Z,9.51
2023-02-03T08:21:39.723Z,9.51
2023-02-03T08:22:39.695Z,9.4
2023-02-03T08:23:39.407Z,9.62
2023-02-03T08:24:39.622Z,9.5
2023-02-03T08:25:39.593Z,9.5
2023-02-03T08:26:39.554Z,9.54
2023-02-03T08:27:39.639Z,9.61
2023-02-03T08:28:39.550Z,9.55
2023-02-03T08:29:39.456Z,9.55
2023-02-03T08:30:39.468Z,9.48
2023-02-03T08:31:39.848Z,9.61
2023-02-03T08:32:39.380Z,9.58
2023-02-03T08:33:39.342Z,9.47
2023-02-03T08:34:39.310Z,9.51
2023-02-03T08:35:39.290Z,9.56
2023-02-03T08:36:39.003Z,9.48
2023-02-03T08:37:39.223Z,9.46
2023-02-03T08:38:39.204Z,9.47
2023-02-03T08:39:38.936Z,9.54
2023-02-03T08:40:39.132Z,9.56
2023-02-03T08:41:39.110Z,9.62
2023-02-03T08:42:39.066Z,9.56
2023-02-03T08:43:39.111Z,9.61
2023-02-03T08:44:39.052Z,9.59
2023-02-03T08:45:38.844Z,9.55
2023-02-03T08:46:38.991Z,9.55
2023-02-03T08:47:38.906Z,9.55
2023-02-03T08:48:38.882Z,9.56
2023-02-03T08:49:38.616Z,9.62
2023-02-03T08:50:38.881Z,9.58
2023-02-03T08:51:38.791Z,9.58
2023-02-03T08:52:38.770Z,9.59
2023-02-03T08:53:38.725Z,9.56
2023-02-03T08:54:39.148Z,9.58
2023-02-03T08:55:39.130Z,9.61
2023-02-03T08:56:38.765Z,9.61
2023-02-03T08:57:39.054Z,9.58
2023-02-03T08:58:39.050Z,9.64
2023-02-03T08:59:38.604Z,9.59
2023-02-03T09:00:38.310Z,9.65
2023-02-03T09:01:38.499Z,9.61
2023-02-03T09:02:38.476Z,9.55
2023-02-03T09:03:38.447Z,9.59
2023-02-03T09:04:38.346Z,9.62
2023-02-03T09:05:38.408Z,9.54
2023-02-03T09:06:38.343Z,9.59
2023-02-03T09:07:38.320Z,9.56
2023-02-03T09:08:38.274Z,9.61
2023-02-03T09:09:38.234Z,9.59
2023-02-03T09:10:37.970Z,9.59
2023-02-03T09:11:38.187Z,9.65
2023-02-03T09:12:37.669Z,9.65
2023-02-03T09:13:38.119Z,9.65
2023-02-03T09:14:38.091Z,9.65
2023-02-03T09:15:37.817Z,9.72
2023-02-03T09:16:38.342Z,9.66
2023-02-03T09:17:38.010Z,9.66
2023-02-03T09:18:37.986Z,9.65
2023-02-03T09:19:40.388Z,9.72
2023-02-03T09:20:38.472Z,9.68
2023-02-03T09:21:50.793Z,9.66
2023-02-03T09:22:38.297Z,9.73
2023-02-03T09:23:37.826Z,9.69
2023-02-03T09:24:37.789Z,9.72
2023-02-03T09:25:37.748Z,9.65
2023-02-03T09:26:37.521Z,9.69
2023-02-03T09:27:37.748Z,9.73
2023-02-03T09:28:37.658Z,9.73
2023-02-03T09:29:37.684Z,9.72
2023-02-03T09:30:37.954Z,9.77
2023-02-03T09:31:37.547Z,9.77
2023-02-03T09:32:37.629Z,9.72
2023-02-03T09:33:37.511Z,9.77
2023-02-03T09:34:37.547Z,9.73
2023-02-03T09:35:37.475Z,9.73
2023-02-03T09:36:37.415Z,9.68
2023-02-03T09:37:37.404Z,9.73
2023-02-03T09:38:37.353Z,9.76
2023-02-03T09:39:37.447Z,9.69
2023-02-03T09:40:37.311Z,9.72
2023-02-03T09:41:37.033Z,9.76
2023-02-03T09:42:37.294Z,9.73
2023-02-03T09:43:37.233Z,9.76
2023-02-03T09:44:37.172Z,9.77
2023-02-03T09:45:37.297Z,9.77
2023-02-03T09:46:36.862Z,9.74
2023-02-03T09:47:37.088Z,9.72
2023-02-03T09:48:37.097Z,9.76
2023-02-03T09:49:37.025Z,9.8
2023-02-03T09:50:37.025Z,9.73
2023-02-03T09:51:36.957Z,9.8
2023-02-03T09:52:36.894Z,9.82
2023-02-03T09:53:36.899Z,9.82
2023-02-03T09:54:36.870Z,9.77
2023-02-03T09:55:36.859Z,9.79
2023-02-03T09:56:36.916Z,9.79
2023-02-03T09:57:36.765Z,9.82
2023-02-03T09:58:36.845Z,9.82
2023-02-03T09:59:36.950Z,9.82
2023-02-03T10:00:36.721Z,9.8
2023-02-03T10:01:36.879Z,9.8
2023-02-03T10:02:36.830Z,9.77
2023-02-03T10:03:36.602Z,9.87
2023-02-03T10:04:36.623Z,9.82
2023-02-03T10:05:36.539Z,9.8
2023-02-03T10:06:36.573Z,9.79
2023-02-03T10:07:36.473Z,9.84
2023-02-03T10:08:36.434Z,9.82
2023-02-03T10:09:36.413Z,9.79
2023-02-03T10:10:36.395Z,9.82
2023-02-03T10:11:36.351Z,9.77
2023-02-03T10:12:36.327Z,9.82
2023-02-03T10:13:38.022Z,9.82
2023-02-03T10:14:36.262Z,9.77
2023-02-03T10:15:36.012Z,9.83
2023-02-03T10:16:36.531Z,9.86
2023-02-03T10:17:36.178Z,9.77
2023-02-03T10:18:36.139Z,9.83
2023-02-03T10:19:36.474Z,9.87
2023-02-03T10:20:36.273Z,9.92
2023-02-03T10:21:36.050Z,9.87
2023-02-03T10:22:36.057Z,9.91
2023-02-03T10:23:35.982Z,9.82
2023-02-03T10:24:35.951Z,9.87
2023-02-03T10:25:35.929Z,9.94
2023-02-03T10:26:35.897Z,9.89
2023-02-03T10:27:35.874Z,9.84
2023-02-03T10:28:35.839Z,9.94
2023-02-03T10:29:35.796Z,9.91
2023-02-03T10:30:37.146Z,9.94
2023-02-03T10:31:36.326Z,9.97
2023-02-03T10:32:35.708Z,9.94
2023-02-03T10:33:35.741Z,9.99
2023-02-03T10:34:35.677Z,9.98
2023-02-03T10:35:35.660Z,9.95
2023-02-03T10:36:35.637Z,10.01
2023-02-03T10:37:35.571Z,9.91
2023-02-03T10:38:35.546Z,9.99
2023-02-03T10:39:35.532Z,9.98
2023-02-03T10:40:35.941Z,9.98
2023-02-03T10:41:35.462Z,9.94
2023-02-03T10:42:35.406Z,9.97
2023-02-03T10:43:35.376Z,9.97
2023-02-03T10:44:35.080Z,9.97
2023-02-03T10:45:35.331Z,9.94
2023-02-03T10:46:35.660Z,10.02
2023-02-03T10:47:35.339Z,9.98
2023-02-03T10:48:35.233Z,9.95
2023-02-03T10:49:35.215Z,10.01
2023-02-03T10:50:35.769Z,10.01
2023-02-03T10:51:35.147Z,10.04
2023-02-03T10:52:35.193Z,10.02
2023-02-03T10:53:35.169Z,10.09
2023-02-03T10:54:35.074Z,10.09
2023-02-03T10:55:35.032Z,10.05
2023-02-03T10:56:34.985Z,10.02
2023-02-03T10:57:35.005Z,10.1
2023-02-03T10:58:34.959Z,10.02
2023-02-03T10:59:34.927Z,10.04
2023-02-03T11:00:35.401Z,10.09
2023-02-03T11:01:35.081Z,10.01
2023-02-03T11:02:35.028Z,10.05
2023-02-03T11:03:34.776Z,10.01
2023-02-03T11:04:34.803Z,10.02
2023-02-03T11:05:34.577Z,10.12
2023-02-03T11:06:34.756Z,10.04
2023-02-03T11:07:34.653Z,10.04
2023-02-03T11:08:34.671Z,10.12
2023-02-03T11:09:34.601Z,10.1
2023-02-03T11:10:35.051Z,10.02
2023-02-03T11:11:34.555Z,10.17
2023-02-03T11:12:34.516Z,10.17
2023-02-03T11:13:34.463Z,10.13
2023-02-03T11:14:34.460Z,10.1
2023-02-03T11:15:34.929Z,10.09
2023-02-03T11:16:39.478Z,10.16
2023-02-03T11:17:34.451Z,10.16
2023-02-03T11:18:34.316Z,10.12
2023-02-03T11:19:34.285Z,10.15
2023-02-03T11:20:34.542Z,10.16
2023-02-03T11:21:34.262Z,10.13
2023-02-03T11:22:34.239Z,10.15
2023-02-03T11:23:34.243Z,10.12
2023-02-03T11:24:34.209Z,10.16
2023-02-03T11:25:34.112Z,10.12
2023-02-03T11:26:34.114Z,10.22
2023-02-03T11:27:34.040Z,10.12
2023-02-03T11:28:33.783Z,10.12
2023-02-03T11:29:33.984Z,10.19
2023-02-03T11:30:34.490Z,10.2
2023-02-03T11:31:34.397Z,10.23
2023-02-03T11:32:33.889Z,10.16
2023-02-03T11:33:33.873Z,10.09
2023-02-03T11:34:33.856Z,10.22
2023-02-03T11:35:33.827Z,10.22
2023-02-03T11:36:33.861Z,10.22
2023-02-03T11:37:33.757Z,10.17
2023-02-03T11:38:33.717Z,10.16
2023-02-03T11:39:33.714Z,10.19
2023-02-03T11:40:34.443Z,10.19
2023-02-03T11:41:33.639Z,10.19
2023-02-03T11:42:33.627Z,10.2
2023-02-03T11:43:33.580Z,10.23
2023-02-03T11:44:33.351Z,10.13
2023-02-03T11:45:33.521Z,9.95
2023-02-03T11:46:33.711Z,9.94
2023-02-03T11:47:33.498Z,9.91
2023-02-03T11:48:33.421Z,9.89
2023-02-03T11:49:33.383Z,9.8
2023-02-03T11:50:33.911Z,9.79
2023-02-03T11:51:33.351Z,9.79
2023-02-03T11:52:33.302Z,9.82
2023-02-03T11:53:33.273Z,9.8
2023-02-03T11:54:33.267Z,9.73
2023-02-03T11:55:33.210Z,9.69
2023-02-03T11:56:33.290Z,9.74
2023-02-03T11:57:33.258Z,9.77
2023-02-03T11:58:33.129Z,9.73
2023-02-03T11:59:33.075Z,9.77
2023-02-03T12:00:33.410Z,9.79
2023-02-03T12:01:33.024Z,9.92
2023-02-03T12:02:33.108Z,9.89
2023-02-03T12:03:32.964Z,9.94
2023-02-03T12:04:32.889Z,10.09
2023-02-03T12:05:32.894Z,10.07
2023-02-03T12:06:32.752Z,10.13
2023-02-03T12:07:32.843Z,10.12
2023-02-03T12:08:32.830Z,10.13
2023-02-03T12:09:32.815Z,10.13
2023-02-03T12:10:33.535Z,10.22
2023-02-03T12:11:32.712Z,10.19
2023-02-03T12:12:32.749Z,10.22
2023-02-03T12:13:32.415Z,10.17
2023-02-03T12:14:32.639Z,10.19
2023-02-03T12:15:32.353Z,10.2
2023-02-03T12:16:32.603Z,10.17
2023-02-03T12:17:32.579Z,10.16
2023-02-03T12:18:32.500Z,10.23
2023-02-03T12:19:32.485Z,10.2
2023-02-03T12:20:33.392Z,10.26
2023-02-03T12:21:32.404Z,10.31
2023-02-03T12:22:32.394Z,10.26
2023-02-03T12:23:32.347Z,10.37
2023-02-03T12:24:32.334Z,10.3
2023-02-03T12:25:32.300Z,10.37
2023-02-03T12:26:32.300Z,10.34
2023-02-03T12:27:32.247Z,10.28
2023-02-03T12:28:38.326Z,10.3
2023-02-03T12:29:34.631Z,10.31
2023-02-03T12:30:33.369Z,10.33
2023-02-03T12:31:32.476Z,10.28
2023-02-03T12:32:32.089Z,10.38
2023-02-03T12:33:32.056Z,10.34
2023-02-03T12:34:32.020Z,10.31
2023-02-03T12:35:34.253Z,10.37
2023-02-03T12:36:31.962Z,10.37
2023-02-03T12:37:31.950Z,10.34
2023-02-03T12:38:31.897Z,10.33
2023-02-03T12:39:31.873Z,10.37
2023-02-03T12:40:32.944Z,10.37
2023-02-03T12:41:31.823Z,10.33
2023-02-03T12:42:31.786Z,10.38
2023-02-03T12:43:31.758Z,10.4
2023-02-03T12:44:31.904Z,10.4
2023-02-03T12:45:31.855Z,10.4
2023-02-03T12:46:31.684Z,10.4
2023-02-03T12:47:31.385Z,10.41
2023-02-03T12:48:31.420Z,10.4
2023-02-03T12:49:31.583Z,10.44
2023-02-03T12:50:32.436Z,10.44
2023-02-03T12:51:31.507Z,10.38
2023-02-03T12:52:31.560Z,10.4
2023-02-03T12:53:33.907Z,10.44
2023-02-03T12:54:31.426Z,10.46
2023-02-03T12:55:31.404Z,10.53
2023-02-03T12:56:31.363Z,10.53
2023-02-03T12:57:31.333Z,10.6
2023-02-03T12:58:33.008Z,10.56
2023-02-03T12:59:31.032Z,10.59
2023-02-03T13:00:32.277Z,10.54
2023-02-03T13:01:31.408Z,10.56
2023-02-03T13:02:31.478Z,10.57
2023-02-03T13:03:31.150Z,10.56
2023-02-03T13:04:31.119Z,10.56
2023-02-03T13:05:31.193Z,10.51
2023-02-03T13:06:31.103Z,10.63
2023-02-03T13:07:31.031Z,10.54
2023-02-03T13:08:30.999Z,10.49
2023-02-03T13:09:30.796Z,10.51
2023-02-03T13:10:31.826Z,10.49
2023-02-03T13:11:30.935Z,10.49
2023-02-03T13:12:30.904Z,10.38
2023-02-03T13:13:30.855Z,10.44
2023-02-03T13:14:30.855Z,10.42
2023-02-03T13:15:30.795Z,10.44
2023-02-03T13:16:30.979Z,10.44